sensor_id;sensor_type;location;lat;lon;timestamp;temperature;humidity
20546;DHT22;10431;50.228;9.112;2023-07-16T00:02:16;23.30;92.10
20546;DHT22;10431;50.228;9.112;2023-07-16T00:04:42;23.30;92.10
20546;DHT22;10431;50.228;9.112;2023-07-16T00:07:08;23.30;92.10
20546;DHT22;10431;50.228;9.112;2023-07-16T00:09:36;23.30;92.10
20546;DHT22;10431;50.228;9.112;2023-07-16T00:12:02;23.30;92.00
20546;DHT22;10431;50.228;9.112;2023-07-16T00:14:28;23.30;92.00
20546;DHT22;10431;50.228;9.112;2023-07-16T00:16:54;23.30;92.00
20546;DHT22;10431;50.228;9.112;2023-07-16T00:19:20;23.30;92.00
20546;DHT22;10431;50.228;9.112;2023-07-16T00:21:46;23.30;92.00
20546;DHT22;10431;50.228;9.112;2023-07-16T00:24:12;23.30;92.00
20546;DHT22;10431;50.228;9.112;2023-07-16T00:26:38;23.30;92.00
20546;DHT22;10431;50.228;9.112;2023-07-16T00:29:04;23.30;92.00
20546;DHT22;10431;50.228;9.112;2023-07-16T00:31:31;23.30;92.00
20546;DHT22;10431;50.228;9.112;2023-07-16T00:33:57;23.30;92.00
20546;DHT22;10431;50.228;9.112;2023-07-16T00:36:24;23.30;92.00
20546;DHT22;10431;50.228;9.112;2023-07-16T00:38:50;23.30;92.00
20546;DHT22;10431;50.228;9.112;2023-07-16T00:41:16;23.30;92.00
20546;DHT22;10431;50.228;9.112;2023-07-16T00:43:42;23.30;92.00
20546;DHT22;10431;50.228;9.112;2023-07-16T00:46:08;23.30;92.00
20546;DHT22;10431;50.228;9.112;2023-07-16T00:48:34;23.30;92.00
20546;DHT22;10431;50.228;9.112;2023-07-16T00:51:01;23.30;92.00
20546;DHT22;10431;50.228;9.112;2023-07-16T00:53:28;23.30;92.00
20546;DHT22;10431;50.228;9.112;2023-07-16T00:55:54;23.30;92.30
20546;DHT22;10431;50.228;9.112;2023-07-16T00:58:20;23.30;92.00
20546;DHT22;10431;50.228;9.112;2023-07-16T01:00:47;23.30;92.00
20546;DHT22;10431;50.228;9.112;2023-07-16T01:03:13;23.30;91.90
20546;DHT22;10431;50.228;9.112;2023-07-16T01:05:45;23.30;92.00
20546;DHT22;10431;50.228;9.112;2023-07-16T01:08:13;23.30;92.00
20546;DHT22;10431;50.228;9.112;2023-07-16T01:10:40;23.30;92.00
20546;DHT22;10431;50.228;9.112;2023-07-16T01:13:07;23.30;91.90
20546;DHT22;10431;50.228;9.112;2023-07-16T01:15:33;23.30;91.90
20546;DHT22;10431;50.228;9.112;2023-07-16T01:17:59;23.30;91.90
20546;DHT22;10431;50.228;9.112;2023-07-16T01:20:26;23.30;91.90
20546;DHT22;10431;50.228;9.112;2023-07-16T01:23:01;23.30;91.90
20546;DHT22;10431;50.228;9.112;2023-07-16T01:25:43;23.30;91.90
20546;DHT22;10431;50.228;9.112;2023-07-16T01:30:52;23.30;91.90
20546;DHT22;10431;50.228;9.112;2023-07-16T01:33:21;23.30;91.90
20546;DHT22;10431;50.228;9.112;2023-07-16T01:35:48;23.30;91.90
20546;DHT22;10431;50.228;9.112;2023-07-16T01:38:14;23.30;91.90
20546;DHT22;10431;50.228;9.112;2023-07-16T01:40:42;23.30;91.90
20546;DHT22;10431;50.228;9.112;2023-07-16T01:43:08;23.30;91.90
20546;DHT22;10431;50.228;9.112;2023-07-16T01:45:34;23.30;91.90
20546;DHT22;10431;50.228;9.112;2023-07-16T01:50:26;23.30;91.90
20546;DHT22;10431;50.228;9.112;2023-07-16T01:52:52;23.30;91.90
20546;DHT22;10431;50.228;9.112;2023-07-16T01:55:18;23.30;91.90
20546;DHT22;10431;50.228;9.112;2023-07-16T01:57:44;23.30;91.90
20546;DHT22;10431;50.228;9.112;2023-07-16T02:00:10;23.30;91.90
20546;DHT22;10431;50.228;9.112;2023-07-16T02:02:45;23.30;91.90
20546;DHT22;10431;50.228;9.112;2023-07-16T02:05:12;23.30;91.90
20546;DHT22;10431;50.228;9.112;2023-07-16T02:07:38;23.30;91.90
20546;DHT22;10431;50.228;9.112;2023-07-16T02:10:06;23.30;91.90
20546;DHT22;10431;50.228;9.112;2023-07-16T02:12:32;23.30;91.90
20546;DHT22;10431;50.228;9.112;2023-07-16T02:14:58;23.30;91.90
20546;DHT22;10431;50.228;9.112;2023-07-16T02:17:24;23.30;91.90
20546;DHT22;10431;50.228;9.112;2023-07-16T02:19:50;23.30;91.90
20546;DHT22;10431;50.228;9.112;2023-07-16T02:22:16;23.30;91.90
20546;DHT22;10431;50.228;9.112;2023-07-16T02:24:43;23.30;91.90
20546;DHT22;10431;50.228;9.112;2023-07-16T02:27:10;23.30;91.90
20546;DHT22;10431;50.228;9.112;2023-07-16T02:29:36;23.30;91.90
20546;DHT22;10431;50.228;9.112;2023-07-16T02:32:02;23.30;91.90
20546;DHT22;10431;50.228;9.112;2023-07-16T02:34:30;23.30;91.90
20546;DHT22;10431;50.228;9.112;2023-07-16T02:36:56;23.30;91.90
20546;DHT22;10431;50.228;9.112;2023-07-16T02:39:22;23.30;91.90
20546;DHT22;10431;50.228;9.112;2023-07-16T02:41:49;23.30;91.90
20546;DHT22;10431;50.228;9.112;2023-07-16T02:44:15;23.30;91.90
20546;DHT22;10431;50.228;9.112;2023-07-16T02:46:41;23.30;91.90
20546;DHT22;10431;50.228;9.112;2023-07-16T02:49:07;23.30;91.90
20546;DHT22;10431;50.228;9.112;2023-07-16T02:51:33;23.30;91.90
20546;DHT22;10431;50.228;9.112;2023-07-16T02:53:59;23.30;91.90
20546;DHT22;10431;50.228;9.112;2023-07-16T02:56:25;23.30;91.90
20546;DHT22;10431;50.228;9.112;2023-07-16T02:58:51;23.30;91.90
20546;DHT22;10431;50.228;9.112;2023-07-16T03:01:17;23.30;91.90
20546;DHT22;10431;50.228;9.112;2023-07-16T03:03:43;23.30;91.90
20546;DHT22;10431;50.228;9.112;2023-07-16T03:06:09;23.30;91.90
20546;DHT22;10431;50.228;9.112;2023-07-16T03:08:36;23.30;91.90
20546;DHT22;10431;50.228;9.112;2023-07-16T03:11:02;23.30;91.90
20546;DHT22;10431;50.228;9.112;2023-07-16T03:13:28;23.30;91.90
20546;DHT22;10431;50.228;9.112;2023-07-16T03:15:54;23.30;91.90
20546;DHT22;10431;50.228;9.112;2023-07-16T03:18:20;23.30;91.90
20546;DHT22;10431;50.228;9.112;2023-07-16T03:20:46;23.30;91.90
20546;DHT22;10431;50.228;9.112;2023-07-16T03:23:13;23.30;92.00
20546;DHT22;10431;50.228;9.112;2023-07-16T03:25:39;23.30;91.90
20546;DHT22;10431;50.228;9.112;2023-07-16T03:28:05;23.30;91.90
20546;DHT22;10431;50.228;9.112;2023-07-16T03:30:31;23.30;92.00
20546;DHT22;10431;50.228;9.112;2023-07-16T03:32:57;23.30;91.90
20546;DHT22;10431;50.228;9.112;2023-07-16T03:35:25;23.30;92.00
20546;DHT22;10431;50.228;9.112;2023-07-16T03:37:51;23.30;91.90
20546;DHT22;10431;50.228;9.112;2023-07-16T03:40:18;23.30;91.90
20546;DHT22;10431;50.228;9.112;2023-07-16T03:42:46;23.30;91.90
20546;DHT22;10431;50.228;9.112;2023-07-16T03:45:12;23.30;92.00
20546;DHT22;10431;50.228;9.112;2023-07-16T03:47:39;23.30;91.90
20546;DHT22;10431;50.228;9.112;2023-07-16T03:50:06;23.20;93.30
20546;DHT22;10431;50.228;9.112;2023-07-16T03:52:32;23.10;94.00
20546;DHT22;10431;50.228;9.112;2023-07-16T03:54:58;23.00;94.90
20546;DHT22;10431;50.228;9.112;2023-07-16T03:57:24;22.90;95.30
20546;DHT22;10431;50.228;9.112;2023-07-16T03:59:51;22.80;95.60
20546;DHT22;10431;50.228;9.112;2023-07-16T04:02:17;22.80;95.80
20546;DHT22;10431;50.228;9.112;2023-07-16T04:04:43;22.80;96.00
20546;DHT22;10431;50.228;9.112;2023-07-16T04:07:09;22.80;96.10
20546;DHT22;10431;50.228;9.112;2023-07-16T04:09:38;22.80;96.20
20546;DHT22;10431;50.228;9.112;2023-07-16T04:12:05;22.80;96.40
20546;DHT22;10431;50.228;9.112;2023-07-16T04:14:31;22.90;96.30
20546;DHT22;10431;50.228;9.112;2023-07-16T04:16:57;22.80;96.40
20546;DHT22;10431;50.228;9.112;2023-07-16T04:19:23;22.80;96.50
20546;DHT22;10431;50.228;9.112;2023-07-16T04:21:49;22.80;96.50
20546;DHT22;10431;50.228;9.112;2023-07-16T04:24:15;22.80;96.60
20546;DHT22;10431;50.228;9.112;2023-07-16T04:26:41;22.80;96.70
20546;DHT22;10431;50.228;9.112;2023-07-16T04:29:07;22.80;96.80
20546;DHT22;10431;50.228;9.112;2023-07-16T04:31:33;22.80;96.80
20546;DHT22;10431;50.228;9.112;2023-07-16T04:33:59;22.80;96.90
20546;DHT22;10431;50.228;9.112;2023-07-16T04:36:25;22.80;96.90
20546;DHT22;10431;50.228;9.112;2023-07-16T04:38:51;22.80;96.90
20546;DHT22;10431;50.228;9.112;2023-07-16T04:41:17;22.80;97.00
20546;DHT22;10431;50.228;9.112;2023-07-16T04:43:43;22.80;97.10
20546;DHT22;10431;50.228;9.112;2023-07-16T04:46:09;22.80;97.20
20546;DHT22;10431;50.228;9.112;2023-07-16T04:48:37;22.70;97.30
20546;DHT22;10431;50.228;9.112;2023-07-16T04:51:03;22.70;97.40
20546;DHT22;10431;50.228;9.112;2023-07-16T04:53:29;22.70;97.50
20546;DHT22;10431;50.228;9.112;2023-07-16T04:55:55;22.70;97.70
20546;DHT22;10431;50.228;9.112;2023-07-16T04:58:22;22.70;97.80
20546;DHT22;10431;50.228;9.112;2023-07-16T05:00:48;22.70;98.00
20546;DHT22;10431;50.228;9.112;2023-07-16T05:03:15;22.70;98.00
20546;DHT22;10431;50.228;9.112;2023-07-16T05:05:41;22.70;98.20
20546;DHT22;10431;50.228;9.112;2023-07-16T05:08:07;22.70;98.20
20546;DHT22;10431;50.228;9.112;2023-07-16T05:10:33;22.70;98.40
20546;DHT22;10431;50.228;9.112;2023-07-16T05:12:59;22.70;98.60
20546;DHT22;10431;50.228;9.112;2023-07-16T05:15:25;22.60;98.80
20546;DHT22;10431;50.228;9.112;2023-07-16T05:17:51;22.60;99.00
20546;DHT22;10431;50.228;9.112;2023-07-16T05:20:17;22.50;99.00
20546;DHT22;10431;50.228;9.112;2023-07-16T05:22:43;22.50;99.10
20546;DHT22;10431;50.228;9.112;2023-07-16T05:25:09;22.50;99.30
20546;DHT22;10431;50.228;9.112;2023-07-16T05:27:35;22.60;99.40
20546;DHT22;10431;50.228;9.112;2023-07-16T05:30:01;22.60;99.50
20546;DHT22;10431;50.228;9.112;2023-07-16T05:32:27;22.60;99.50
20546;DHT22;10431;50.228;9.112;2023-07-16T05:34:53;22.50;99.60
20546;DHT22;10431;50.228;9.112;2023-07-16T05:37:19;22.60;99.60
20546;DHT22;10431;50.228;9.112;2023-07-16T05:39:45;22.50;99.50
20546;DHT22;10431;50.228;9.112;2023-07-16T05:42:11;22.50;99.50
20546;DHT22;10431;50.228;9.112;2023-07-16T05:44:37;22.50;99.50
20546;DHT22;10431;50.228;9.112;2023-07-16T05:47:03;22.50;99.40
20546;DHT22;10431;50.228;9.112;2023-07-16T05:49:29;22.50;99.40
20546;DHT22;10431;50.228;9.112;2023-07-16T05:51:56;22.50;99.40
20546;DHT22;10431;50.228;9.112;2023-07-16T05:54:22;22.50;99.40
20546;DHT22;10431;50.228;9.112;2023-07-16T05:56:48;22.50;99.50
20546;DHT22;10431;50.228;9.112;2023-07-16T05:59:14;22.50;99.50
20546;DHT22;10431;50.228;9.112;2023-07-16T06:01:40;22.50;99.50
20546;DHT22;10431;50.228;9.112;2023-07-16T06:04:06;22.60;99.40
20546;DHT22;10431;50.228;9.112;2023-07-16T06:06:32;22.50;99.30
20546;DHT22;10431;50.228;9.112;2023-07-16T06:08:58;22.50;99.10
20546;DHT22;10431;50.228;9.112;2023-07-16T06:11:24;22.50;99.00
20546;DHT22;10431;50.228;9.112;2023-07-16T06:13:52;22.50;99.00
20546;DHT22;10431;50.228;9.112;2023-07-16T06:16:19;22.50;98.80
20546;DHT22;10431;50.228;9.112;2023-07-16T06:18:45;22.50;98.60
20546;DHT22;10431;50.228;9.112;2023-07-16T06:21:11;22.50;98.60
20546;DHT22;10431;50.228;9.112;2023-07-16T06:23:37;22.50;98.40
20546;DHT22;10431;50.228;9.112;2023-07-16T06:26:03;22.50;98.00
20546;DHT22;10431;50.228;9.112;2023-07-16T06:28:29;22.50;97.90
20546;DHT22;10431;50.228;9.112;2023-07-16T06:30:56;22.50;97.80
20546;DHT22;10431;50.228;9.112;2023-07-16T06:33:22;22.50;97.60
20546;DHT22;10431;50.228;9.112;2023-07-16T06:35:48;22.50;97.70
20546;DHT22;10431;50.228;9.112;2023-07-16T06:38:14;22.50;97.60
20546;DHT22;10431;50.228;9.112;2023-07-16T06:40:47;22.50;97.60
20546;DHT22;10431;50.228;9.112;2023-07-16T06:43:14;22.50;97.20
20546;DHT22;10431;50.228;9.112;2023-07-16T06:45:41;22.50;97.20
20546;DHT22;10431;50.228;9.112;2023-07-16T06:48:07;22.50;97.20
20546;DHT22;10431;50.228;9.112;2023-07-16T06:50:33;22.50;97.10
20546;DHT22;10431;50.228;9.112;2023-07-16T06:52:59;22.50;97.10
20546;DHT22;10431;50.228;9.112;2023-07-16T06:55:25;22.50;96.90
20546;DHT22;10431;50.228;9.112;2023-07-16T06:57:52;22.50;96.80
20546;DHT22;10431;50.228;9.112;2023-07-16T07:00:18;22.50;96.70
20546;DHT22;10431;50.228;9.112;2023-07-16T07:02:44;22.50;96.40
20546;DHT22;10431;50.228;9.112;2023-07-16T07:05:10;22.60;96.00
20546;DHT22;10431;50.228;9.112;2023-07-16T07:07:35;22.50;95.80
20546;DHT22;10431;50.228;9.112;2023-07-16T07:10:01;22.50;95.70
20546;DHT22;10431;50.228;9.112;2023-07-16T07:12:27;22.60;95.60
20546;DHT22;10431;50.228;9.112;2023-07-16T07:14:54;22.60;95.50
20546;DHT22;10431;50.228;9.112;2023-07-16T07:17:19;22.60;95.50
20546;DHT22;10431;50.228;9.112;2023-07-16T07:19:46;22.70;95.50
20546;DHT22;10431;50.228;9.112;2023-07-16T07:22:11;22.70;95.40
20546;DHT22;10431;50.228;9.112;2023-07-16T07:24:38;22.70;95.40
20546;DHT22;10431;50.228;9.112;2023-07-16T07:27:04;22.70;95.30
20546;DHT22;10431;50.228;9.112;2023-07-16T07:29:30;22.70;95.20
20546;DHT22;10431;50.228;9.112;2023-07-16T07:31:56;22.70;95.20
20546;DHT22;10431;50.228;9.112;2023-07-16T07:34:22;22.70;95.30
20546;DHT22;10431;50.228;9.112;2023-07-16T07:36:48;22.70;95.30
20546;DHT22;10431;50.228;9.112;2023-07-16T07:39:14;22.70;95.30
20546;DHT22;10431;50.228;9.112;2023-07-16T07:41:40;22.80;95.30
20546;DHT22;10431;50.228;9.112;2023-07-16T07:44:06;22.70;94.70
20546;DHT22;10431;50.228;9.112;2023-07-16T07:46:32;22.80;94.20
20546;DHT22;10431;50.228;9.112;2023-07-16T07:48:58;22.80;94.00
20546;DHT22;10431;50.228;9.112;2023-07-16T07:51:24;22.70;93.30
20546;DHT22;10431;50.228;9.112;2023-07-16T07:53:50;22.70;93.30
20546;DHT22;10431;50.228;9.112;2023-07-16T07:56:16;22.70;93.00
20546;DHT22;10431;50.228;9.112;2023-07-16T07:58:42;22.80;93.10
20546;DHT22;10431;50.228;9.112;2023-07-16T08:01:09;22.80;93.00
20546;DHT22;10431;50.228;9.112;2023-07-16T08:03:35;22.80;92.90
20546;DHT22;10431;50.228;9.112;2023-07-16T08:06:01;22.80;93.00
20546;DHT22;10431;50.228;9.112;2023-07-16T08:08:27;22.90;93.10
20546;DHT22;10431;50.228;9.112;2023-07-16T08:10:54;22.80;93.50
20546;DHT22;10431;50.228;9.112;2023-07-16T08:13:20;22.80;93.50
20546;DHT22;10431;50.228;9.112;2023-07-16T08:15:46;22.80;93.60
20546;DHT22;10431;50.228;9.112;2023-07-16T08:18:13;22.80;93.60
20546;DHT22;10431;50.228;9.112;2023-07-16T08:20:39;22.80;93.70
20546;DHT22;10431;50.228;9.112;2023-07-16T08:23:06;22.80;93.70
20546;DHT22;10431;50.228;9.112;2023-07-16T08:25:32;22.80;93.70
20546;DHT22;10431;50.228;9.112;2023-07-16T08:27:58;22.80;93.80
20546;DHT22;10431;50.228;9.112;2023-07-16T08:30:24;22.80;93.80
20546;DHT22;10431;50.228;9.112;2023-07-16T08:32:50;22.80;93.90
20546;DHT22;10431;50.228;9.112;2023-07-16T08:35:16;22.80;93.90
20546;DHT22;10431;50.228;9.112;2023-07-16T08:37:43;22.80;94.00
20546;DHT22;10431;50.228;9.112;2023-07-16T08:40:10;22.80;94.10
20546;DHT22;10431;50.228;9.112;2023-07-16T08:42:39;22.80;94.20
20546;DHT22;10431;50.228;9.112;2023-07-16T08:45:11;22.80;94.20
20546;DHT22;10431;50.228;9.112;2023-07-16T08:47:37;22.80;94.10
20546;DHT22;10431;50.228;9.112;2023-07-16T08:50:04;22.80;94.20
20546;DHT22;10431;50.228;9.112;2023-07-16T08:52:30;22.80;94.10
20546;DHT22;10431;50.228;9.112;2023-07-16T08:54:56;22.80;94.10
20546;DHT22;10431;50.228;9.112;2023-07-16T08:57:22;22.90;94.10
20546;DHT22;10431;50.228;9.112;2023-07-16T08:59:48;22.80;94.30
20546;DHT22;10431;50.228;9.112;2023-07-16T09:02:16;22.80;94.30
20546;DHT22;10431;50.228;9.112;2023-07-16T09:04:43;22.80;94.30
20546;DHT22;10431;50.228;9.112;2023-07-16T09:07:09;22.80;94.40
20546;DHT22;10431;50.228;9.112;2023-07-16T09:09:35;22.80;94.30
20546;DHT22;10431;50.228;9.112;2023-07-16T09:12:01;22.80;94.20
20546;DHT22;10431;50.228;9.112;2023-07-16T09:14:27;22.80;94.40
20546;DHT22;10431;50.228;9.112;2023-07-16T09:16:53;22.80;94.30
20546;DHT22;10431;50.228;9.112;2023-07-16T09:19:20;22.80;94.30
20546;DHT22;10431;50.228;9.112;2023-07-16T09:21:47;22.80;94.30
20546;DHT22;10431;50.228;9.112;2023-07-16T09:24:13;22.80;94.40
20546;DHT22;10431;50.228;9.112;2023-07-16T09:26:47;22.80;94.40
20546;DHT22;10431;50.228;9.112;2023-07-16T09:29:13;22.80;94.30
20546;DHT22;10431;50.228;9.112;2023-07-16T09:31:50;22.80;94.40
20546;DHT22;10431;50.228;9.112;2023-07-16T09:34:16;22.80;94.40
20546;DHT22;10431;50.228;9.112;2023-07-16T09:36:42;22.80;94.30
20546;DHT22;10431;50.228;9.112;2023-07-16T09:39:08;22.80;94.30
20546;DHT22;10431;50.228;9.112;2023-07-16T09:41:34;22.80;94.40
20546;DHT22;10431;50.228;9.112;2023-07-16T09:44:01;22.80;94.40
20546;DHT22;10431;50.228;9.112;2023-07-16T09:46:27;22.80;94.30
20546;DHT22;10431;50.228;9.112;2023-07-16T09:48:53;22.80;94.30
20546;DHT22;10431;50.228;9.112;2023-07-16T09:51:19;22.80;94.40
20546;DHT22;10431;50.228;9.112;2023-07-16T09:53:45;22.80;94.40
20546;DHT22;10431;50.228;9.112;2023-07-16T09:56:12;22.80;94.40
20546;DHT22;10431;50.228;9.112;2023-07-16T09:58:39;22.80;94.40
20546;DHT22;10431;50.228;9.112;2023-07-16T10:01:05;22.80;94.40
20546;DHT22;10431;50.228;9.112;2023-07-16T10:03:31;22.80;94.40
20546;DHT22;10431;50.228;9.112;2023-07-16T10:06:06;22.80;94.50
20546;DHT22;10431;50.228;9.112;2023-07-16T10:08:33;22.80;94.40
20546;DHT22;10431;50.228;9.112;2023-07-16T10:11:03;22.80;94.40
20546;DHT22;10431;50.228;9.112;2023-07-16T10:13:29;22.80;94.30
20546;DHT22;10431;50.228;9.112;2023-07-16T10:15:56;22.80;94.50
20546;DHT22;10431;50.228;9.112;2023-07-16T10:18:31;22.80;94.40
20546;DHT22;10431;50.228;9.112;2023-07-16T10:21:00;22.80;94.50
20546;DHT22;10431;50.228;9.112;2023-07-16T10:23:26;22.90;94.50
20546;DHT22;10431;50.228;9.112;2023-07-16T10:26:02;22.80;94.50
20546;DHT22;10431;50.228;9.112;2023-07-16T10:28:33;22.90;94.50
20546;DHT22;10431;50.228;9.112;2023-07-16T10:30:59;22.90;94.40
20546;DHT22;10431;50.228;9.112;2023-07-16T10:33:25;22.90;94.40
20546;DHT22;10431;50.228;9.112;2023-07-16T10:35:51;22.80;94.40
20546;DHT22;10431;50.228;9.112;2023-07-16T10:38:17;22.80;94.40
20546;DHT22;10431;50.228;9.112;2023-07-16T10:40:44;22.90;94.50
20546;DHT22;10431;50.228;9.112;2023-07-16T10:43:11;22.90;94.50
20546;DHT22;10431;50.228;9.112;2023-07-16T10:45:37;22.90;94.40
20546;DHT22;10431;50.228;9.112;2023-07-16T10:48:03;22.90;94.40
20546;DHT22;10431;50.228;9.112;2023-07-16T10:50:31;22.90;94.40
20546;DHT22;10431;50.228;9.112;2023-07-16T10:52:57;22.90;94.40
20546;DHT22;10431;50.228;9.112;2023-07-16T10:55:25;22.90;94.30
20546;DHT22;10431;50.228;9.112;2023-07-16T10:57:51;22.90;94.30
20546;DHT22;10431;50.228;9.112;2023-07-16T11:00:19;22.80;94.20
20546;DHT22;10431;50.228;9.112;2023-07-16T11:02:47;22.90;94.20
20546;DHT22;10431;50.228;9.112;2023-07-16T11:05:13;22.90;94.20
20546;DHT22;10431;50.228;9.112;2023-07-16T11:07:43;22.90;94.10
20546;DHT22;10431;50.228;9.112;2023-07-16T11:10:10;22.90;94.10
20546;DHT22;10431;50.228;9.112;2023-07-16T11:12:36;22.90;94.00
20546;DHT22;10431;50.228;9.112;2023-07-16T11:15:02;22.90;94.00
20546;DHT22;10431;50.228;9.112;2023-07-16T11:17:28;22.90;94.00
20546;DHT22;10431;50.228;9.112;2023-07-16T11:19:55;22.90;93.90
20546;DHT22;10431;50.228;9.112;2023-07-16T11:22:24;22.90;93.90
20546;DHT22;10431;50.228;9.112;2023-07-16T11:24:50;22.80;93.90
20546;DHT22;10431;50.228;9.112;2023-07-16T11:27:17;22.90;93.90
20546;DHT22;10431;50.228;9.112;2023-07-16T11:29:56;22.90;93.90
20546;DHT22;10431;50.228;9.112;2023-07-16T11:32:32;22.90;93.80
20546;DHT22;10431;50.228;9.112;2023-07-16T11:35:00;22.90;93.80
20546;DHT22;10431;50.228;9.112;2023-07-16T11:37:27;22.90;93.70
20546;DHT22;10431;50.228;9.112;2023-07-16T11:39:57;22.90;93.70
20546;DHT22;10431;50.228;9.112;2023-07-16T11:42:23;22.90;93.60
20546;DHT22;10431;50.228;9.112;2023-07-16T11:44:50;22.90;93.60
20546;DHT22;10431;50.228;9.112;2023-07-16T11:47:16;22.90;93.60
20546;DHT22;10431;50.228;9.112;2023-07-16T11:49:42;22.90;93.50
20546;DHT22;10431;50.228;9.112;2023-07-16T11:52:08;22.80;93.50
20546;DHT22;10431;50.228;9.112;2023-07-16T11:54:34;22.90;92.10
20546;DHT22;10431;50.228;9.112;2023-07-16T11:57:00;23.20;89.00
20546;DHT22;10431;50.228;9.112;2023-07-16T11:59:26;23.30;86.10
20546;DHT22;10431;50.228;9.112;2023-07-16T12:01:52;23.30;86.10
20546;DHT22;10431;50.228;9.112;2023-07-16T12:04:19;23.30;86.90
20546;DHT22;10431;50.228;9.112;2023-07-16T12:06:45;23.20;87.20
20546;DHT22;10431;50.228;9.112;2023-07-16T12:09:11;23.20;87.70
20546;DHT22;10431;50.228;9.112;2023-07-16T12:11:38;23.10;88.00
20546;DHT22;10431;50.228;9.112;2023-07-16T12:14:04;23.10;88.60
20546;DHT22;10431;50.228;9.112;2023-07-16T12:16:30;23.10;89.30
20546;DHT22;10431;50.228;9.112;2023-07-16T12:18:57;23.10;89.70
20546;DHT22;10431;50.228;9.112;2023-07-16T12:21:23;23.10;90.00
20546;DHT22;10431;50.228;9.112;2023-07-16T12:23:49;23.00;90.20
20546;DHT22;10431;50.228;9.112;2023-07-16T12:26:15;23.00;90.30
20546;DHT22;10431;50.228;9.112;2023-07-16T12:28:41;23.10;90.50
20546;DHT22;10431;50.228;9.112;2023-07-16T12:31:07;23.10;90.50
20546;DHT22;10431;50.228;9.112;2023-07-16T12:33:33;23.00;90.60
20546;DHT22;10431;50.228;9.112;2023-07-16T12:35:59;23.00;90.60
20546;DHT22;10431;50.228;9.112;2023-07-16T12:38:25;23.00;90.80
20546;DHT22;10431;50.228;9.112;2023-07-16T12:40:51;23.00;90.90
20546;DHT22;10431;50.228;9.112;2023-07-16T12:43:17;23.00;91.00
20546;DHT22;10431;50.228;9.112;2023-07-16T12:45:43;23.00;91.00
20546;DHT22;10431;50.228;9.112;2023-07-16T12:48:09;23.00;91.00
20546;DHT22;10431;50.228;9.112;2023-07-16T12:50:35;23.00;91.10
20546;DHT22;10431;50.228;9.112;2023-07-16T12:53:01;23.00;91.20
20546;DHT22;10431;50.228;9.112;2023-07-16T12:55:27;23.00;91.30
20546;DHT22;10431;50.228;9.112;2023-07-16T12:57:53;23.00;91.30
20546;DHT22;10431;50.228;9.112;2023-07-16T13:00:19;23.00;91.30
20546;DHT22;10431;50.228;9.112;2023-07-16T13:02:45;23.00;91.40
20546;DHT22;10431;50.228;9.112;2023-07-16T13:05:11;23.10;90.70
20546;DHT22;10431;50.228;9.112;2023-07-16T13:07:37;23.10;90.40
20546;DHT22;10431;50.228;9.112;2023-07-16T13:10:03;23.00;90.90
20546;DHT22;10431;50.228;9.112;2023-07-16T13:12:29;23.10;91.00
20546;DHT22;10431;50.228;9.112;2023-07-16T13:14:55;23.10;91.30
20546;DHT22;10431;50.228;9.112;2023-07-16T13:17:21;23.10;91.20
20546;DHT22;10431;50.228;9.112;2023-07-16T13:19:47;23.10;91.30
20546;DHT22;10431;50.228;9.112;2023-07-16T13:22:13;23.10;91.30
20546;DHT22;10431;50.228;9.112;2023-07-16T13:24:40;23.10;91.40
20546;DHT22;10431;50.228;9.112;2023-07-16T13:27:06;23.10;91.50
20546;DHT22;10431;50.228;9.112;2023-07-16T13:29:32;23.10;91.60
20546;DHT22;10431;50.228;9.112;2023-07-16T13:31:58;23.10;91.70
20546;DHT22;10431;50.228;9.112;2023-07-16T13:34:24;23.10;91.70
20546;DHT22;10431;50.228;9.112;2023-07-16T13:36:50;23.10;91.70
20546;DHT22;10431;50.228;9.112;2023-07-16T13:39:16;23.10;91.90
20546;DHT22;10431;50.228;9.112;2023-07-16T13:41:42;23.10;91.90
20546;DHT22;10431;50.228;9.112;2023-07-16T13:44:08;23.10;92.00
20546;DHT22;10431;50.228;9.112;2023-07-16T13:46:34;23.10;92.10
20546;DHT22;10431;50.228;9.112;2023-07-16T13:49:00;23.10;92.10
20546;DHT22;10431;50.228;9.112;2023-07-16T13:51:26;23.10;92.30
20546;DHT22;10431;50.228;9.112;2023-07-16T13:53:52;23.10;92.30
20546;DHT22;10431;50.228;9.112;2023-07-16T13:56:18;23.10;92.50
20546;DHT22;10431;50.228;9.112;2023-07-16T13:58:44;23.20;91.00
20546;DHT22;10431;50.228;9.112;2023-07-16T14:01:10;23.40;87.70
20546;DHT22;10431;50.228;9.112;2023-07-16T14:03:36;23.50;86.60
20546;DHT22;10431;50.228;9.112;2023-07-16T14:06:02;23.60;85.30
20546;DHT22;10431;50.228;9.112;2023-07-16T14:08:28;23.60;85.30
20546;DHT22;10431;50.228;9.112;2023-07-16T14:10:54;23.60;83.40
20546;DHT22;10431;50.228;9.112;2023-07-16T14:13:20;23.70;82.80
20546;DHT22;10431;50.228;9.112;2023-07-16T14:15:46;23.70;83.30
20546;DHT22;10431;50.228;9.112;2023-07-16T14:18:13;23.70;82.60
20546;DHT22;10431;50.228;9.112;2023-07-16T14:20:39;23.70;82.30
20546;DHT22;10431;50.228;9.112;2023-07-16T14:23:05;23.70;82.20
20546;DHT22;10431;50.228;9.112;2023-07-16T14:25:31;23.70;82.00
20546;DHT22;10431;50.228;9.112;2023-07-16T14:27:57;23.70;82.40
20546;DHT22;10431;50.228;9.112;2023-07-16T14:30:23;23.70;81.70
20546;DHT22;10431;50.228;9.112;2023-07-16T14:32:49;23.70;81.90
20546;DHT22;10431;50.228;9.112;2023-07-16T14:35:16;23.70;81.40
20546;DHT22;10431;50.228;9.112;2023-07-16T14:37:42;23.70;82.10
20546;DHT22;10431;50.228;9.112;2023-07-16T14:40:08;23.70;80.60
20546;DHT22;10431;50.228;9.112;2023-07-16T14:42:34;23.60;81.10
20546;DHT22;10431;50.228;9.112;2023-07-16T14:45:00;23.60;81.30
20546;DHT22;10431;50.228;9.112;2023-07-16T14:47:26;23.70;80.70
20546;DHT22;10431;50.228;9.112;2023-07-16T14:49:52;23.70;80.90
20546;DHT22;10431;50.228;9.112;2023-07-16T14:52:18;23.60;80.60
20546;DHT22;10431;50.228;9.112;2023-07-16T14:54:44;23.60;80.60
20546;DHT22;10431;50.228;9.112;2023-07-16T14:57:11;23.60;80.80
20546;DHT22;10431;50.228;9.112;2023-07-16T14:59:37;23.70;82.60
20546;DHT22;10431;50.228;9.112;2023-07-16T15:02:04;23.60;83.40
20546;DHT22;10431;50.228;9.112;2023-07-16T15:04:30;23.60;85.60
20546;DHT22;10431;50.228;9.112;2023-07-16T15:06:56;23.50;86.70
20546;DHT22;10431;50.228;9.112;2023-07-16T15:09:22;23.50;87.60
20546;DHT22;10431;50.228;9.112;2023-07-16T15:11:48;23.50;88.50
20546;DHT22;10431;50.228;9.112;2023-07-16T15:14:14;23.40;88.80
20546;DHT22;10431;50.228;9.112;2023-07-16T15:16:41;23.40;89.20
20546;DHT22;10431;50.228;9.112;2023-07-16T15:19:07;23.40;89.50
20546;DHT22;10431;50.228;9.112;2023-07-16T15:21:33;23.40;88.50
20546;DHT22;10431;50.228;9.112;2023-07-16T15:24:00;23.50;85.30
20546;DHT22;10431;50.228;9.112;2023-07-16T15:26:25;23.60;84.00
20546;DHT22;10431;50.228;9.112;2023-07-16T15:28:53;23.70;82.70
20546;DHT22;10431;50.228;9.112;2023-07-16T15:31:19;23.60;83.40